AirNav   Air Wisconsin Up To $57,000 Bonus
 
 1412 users online  

KMGY Dayton-Wright Brothers Airport
Dayton, Ohio, USA

GOING TO DAYTON?


FAA INFORMATION EFFECTIVE 22 APRIL 2021

Location

FAA Identifier: MGY
Lat/Long: 39-35-20.3000N 084-13-29.5000W
39-35.338333N 084-13.491667W
39.5889722,-84.2248611
(estimated)
Elevation: 956.6 ft. / 291.6 m (surveyed)
Variation: 04W (1995)
From city: 10 miles S of DAYTON, OH
Time zone: UTC -4 (UTC -5 during Standard Time)
Zip code: 45342

Airport Operations

Airport use: Open to the public
Activation date: 12/1957
Control tower: no
ARTCC: INDIANAPOLIS CENTER
FSS: DAYTON FLIGHT SERVICE STATION
NOTAMs facility: MGY (NOTAM-D service available)
Attendance: 0800-2100
Wind indicator: lighted
Segmented circle: no
Lights: ACTVT MALS RWY 20; PAPI RWY 02 & 20; MIRL RWY 02/20 - CTAF.
Beacon: white-green (lighted land airport)
Operates sunset to sunrise.

Airport Communications

CTAF/UNICOM: 122.8
WX ASOS: 118.375 (937-885-2171)
COLUMBUS APPROACH: 118.85
COLUMBUS DEPARTURE: 118.85
CLEARANCE DELIVERY: 119.4
CLASS C: 118.85
IC: 118.85
WX AWOS-3 at I68 (8 nm S): 120.55 (513-934-5500)
WX AWOS-3 at MWO (9 nm SW): 120.025 (513-422-3505)
WX AWOS-3 at I19 (12 nm NE): 118.525 (937-372-4668)
WX AWOS-3 at I66 (18 nm E): 124.175 (937-382-1376)
WX ASOS at DAY (19 nm N): PHONE 937-415-6819
WX ASOS at HAO (19 nm SW): 121.425 (513-863-6137)

Nearby radio navigation aids

VOR radial/distance  VOR name  Freq  Var
MXQr300/21.8MIDWEST VOR/DME112.9004W
DQNr164/26.8DAYTON VOR/DME114.5001W

 
NDB name  Hdg/Dist  Freq  Var  ID
ONIDA086/4.622304WMW -- .--
HOOK FIELD066/11.623904WHKF .... -.- ..-.
CLARK COUNTY234/26.734104WCCJ -.-. -.-. .---
SPORTYS003/30.724504WPWF .--. .-- ..-.
COURT HOUSE275/38.541406WCSS -.-. ... ...

Airport Services

Fuel available: 100LL JET-A JET-A+
Parking: hangars and tiedowns
Airframe service: MAJOR
Powerplant service: MAJOR
Bottled oxygen: HIGH/LOW
Bulk oxygen: HIGH

Runway Information

Runway 2/20

Dimensions: 5000 x 100 ft. / 1524 x 30 m
Surface: asphalt/grooved, in good condition
Weight bearing capacity: 
Single wheel: 50.0
Double wheel: 60.0
Runway edge lights: medium intensity
RUNWAY 2  RUNWAY 20
Latitude: 39-34.956500N39-35.718747N
Longitude: 084-13.692647W084-13.289923W
Elevation: 936.2 ft.956.6 ft.
Traffic pattern: leftleft
Runway heading: 026 magnetic, 022 true206 magnetic, 202 true
Displaced threshold: no590 ft.
Declared distances: TORA:5000 TODA:5000 ASDA:4700 LDA:4700TORA:5000 TODA:5000 ASDA:5000 LDA:4410
Markings: nonprecision, in good conditionnonprecision, in good condition
Visual slope indicator: 2-light PAPI on left (3.00 degrees glide path)4-light PAPI on left (3.00 degrees glide path)
UNUSBL BYD 7 DEGS RIGHT OF CNTRLN.
Approach lights: MALS: 1,400 foot medium intensity approach lighting system
Runway end identifier lights: no
Touchdown point: yes, no lightsyes, no lights
Instrument approach: LOC/DME
Obstructions: 86 ft. trees, 2900 ft. from runway, 350 ft. left of centerline, 31:1 slope to clear21 ft. road, 490 ft. from runway, 288 ft. right of centerline, 13:1 slope to clear
RY 20 APCH RATIO 24:1 TO DSPLCD THLD DUE TO 15 FT ACFT 275 FT R 350 FT FM THLD.

Airport Ownership and Management from official FAA records

Ownership: Publicly-owned
Owner: CITY OF DAYTON
3600 TERMINAL DR STE 300
VANDALIA, OH 45377-1095
Phone 937-885-4121
Manager: BRANDON ELLIS
10550 N SPRINGBORO PIKE
MIAMISBURG, OH 45342-4956
Phone 937-454-8230

Airport Operational Statistics

Aircraft based on the field: 69
Single engine airplanes: 48
Multi engine airplanes: 9
Jet airplanes: 7
Helicopters: 5
    
Aircraft operations: avg 244/day *
48% local general aviation
45% transient general aviation
7% air taxi
<1% military
* for 12-month period ending 02 September 2016

Additional Remarks

RWYS GROSS WEIGHT PER ARPT MGR.
TWY LIGHTS ON SS-SR.
BIRDS & DEER ON & INVOF ARPT.
SURFACE CONDITIONS UNMNT 2030-1200Z++ WKDAYS/ ALL DAY WKENDS/HOL.
FULL POWER MAINTENANCE RUNUPS PROHIBITED IN THE HOLDING APRON AT THE NORTHWEST CORNER OF TWY A BETWEEN THE HOURS OF 0800L TO 1700L MONDAY THRU FRIDAY.

Instrument Procedures

NOTE: All procedures below are presented as PDF files. If you need a reader for these files, you should download the free Adobe Reader.

NOT FOR NAVIGATION. Please procure official charts for flight.
FAA instrument procedures published for use from 22 April 2021 at 0901Z to 20 May 2021 at 0900z.

 
STARs - Standard Terminal Arrivals
DANEI THREE   download (189KB)
 
IAPs - Instrument Approach Procedures
RNAV (GPS) RWY 02 **CHANGED**   download (250KB)
RNAV (GPS) RWY 20 **CHANGED**   download (250KB)
LOC RWY 20 **CHANGED**   download (230KB)
NDB-A **CHANGED**   download (190KB)
NOTE: Special Alternate Minimums apply   download (16KB)
NOTE: Special Take-Off Minimums/Departure Procedures apply   download (239KB)

Other nearby airports with instrument procedures:

I68 - Warren County Airport/John Lane Field (8 nm S)
KMWO - Middletown Regional Airport/Hook Field (9 nm SW)
I19 - Greene County-Lewis A Jackson Regional Airport (12 nm NE)
KFFO - Wright-Patterson Air Force Base (16 nm NE)
I66 - Clinton Field Airport (18 nm E)
KDAY - James M Cox Dayton International Airport (19 nm N)
KHAO - Butler County Regional Airport/Hogan Field (19 nm SW)
 
Loc | Ops | Rwys | IFR | FBO | Links
Com | Nav | Svcs | Stats | Notes
Area around KMGY (Dayton-Wright Brothers Airport)
 
Road maps at: MapQuest Bing Google
 
Aerial photo
WARNING: Photo may not be current or correct
Aerial photo of KMGY (Dayton-Wright Brothers Airport)
Photo taken 25-Oct-2011
looking east.

Do you have a better or more recent aerial photo of Dayton-Wright Brothers Airport that you would like to share? If so, please send us your photo.

 
Sectional chart

 
Airport diagram
CAUTION: Diagram may not be current
Diagram of KMGY (Dayton-Wright Brothers Airport)
 
Airport distance calculator
Flying to Dayton-Wright Brothers Airport? Find the distance to fly.

From to KMGY

Sunrise and sunset
Times for 06-May-2021
 Local
(UTC-4)
 Zulu
(UTC)
Morning civil twilight06:0310:03
Sunrise06:3310:33
Sunset20:3400:34
Evening civil twilight21:0401:04

Current date and time
Zulu (UTC)  07-May-2021 01:09:33
Local (UTC-4)  06-May-2021 21:09:33
 
METAR
KMGY 070053Z AUTO 29006KT 7SM -RA BKN039 OVC046 12/08 A2999 RMK AO2 SLP158 P0001 T01170078
KI68 
8nm S 
070055Z AUTO 29010G15KT 7SM RA SCT010 BKN015 BKN046 11/11 A3000 RMK AO1 T01130110
KMWO 
9nm SW 
070055Z AUTO 29003KT 7SM RA BR SCT034 OVC048 11/10 A3002 RMK AO2 P0004 T01090101
KFFO 
16nm NE 
062356Z 01006KT 10SM -RA OVC050 12/08 A2999 RMK AO2A SLP161 P0000 60000 T01160081 10165 20116 57010
KDAY 
19nm N 
070056Z 01003KT 9SM -RA FEW033 OVC045 11/07 A3000 RMK AO2 SLP161 P0003 T01110072
KHAO 
19nm SW 
070053Z AUTO 32004KT 7SM -RA OVC048 11/09 A3001 RMK AO2 SLP163 P0010 T01060089
TAF
KFFO 
16nm NE 
061900Z 0619/0801 20012KT 9999 FEW045 SCT060 OVC090 QNH2998INS BECMG 0620/0621 22012KT 9999 VCSH BKN045 OVC090 620708 QNH2996INS BECMG 0623/0624 24009KT 8000 -SHRA BKN025 OVC050 620609 QNH2996INS BECMG 0702/0703 35009KT 6000 -SHRA BR BKN010 OVC025 620509 QNH2994INS BECMG 0708/0709 33012KT 9000 BR SCT010 BKN035 QNH2994INS BECMG 0714/0715 33012KT 9999 VCSH FEW010 SCT060 BKN100 QNH2998INS BECMG 0717/0718 28015G20KT 9000 -SHRA BKN030 BKN045 OVC060 620604 QNH2990INS TEMPO 0719/0721 29015G25KT 3200 -T
KDAY 
19nm N 
061746Z 0618/0718 21010KT P6SM SCT040 BKN080 FM062100 21010KT P6SM VCSH OVC060 FM070000 24008KT P6SM -SHRA SCT015 OVC050 FM070400 30013KT P6SM -SHRA OVC015 FM070800 33013G20KT P6SM FEW015 FM071200 31008KT P6SM SKC FM071700 28011G19KT P6SM VCSH BKN050
NOTAMs
Click for the latest NOTAMs
NOTAMs are issued by the DoD/FAA and will open in a separate window not controlled by AirNav.

 

 
 

FBO, Fuel Providers, and Aircraft Ground Support

  
 Business Name 
 
 Contact 
 
 Services / Description 
 
Fuel Prices
 
Comments
  
First Flight Aviation UNICOM 122.80
937-885-5580
937-313-6573
[web site]
[email]
First Flight Aviation is a FAA Certified Repair Station (GA5R-876M) and full service FBO. We are certified for maintenance on Piston, Turboprop and Jet Aircraft. Our objective is to make owning any aircraft the most satisfying experience in aviation. Overnight heated hangar space available!
More info and photos of First Flight Aviation
 
AirBoss™ fuel program   UVair   Crew car   FAA-Approved Repair Station   Cirrus  
 
Avfuel
100LL Jet A
FS $4.69 $3.59 
GUARANTEED
AirBossMEMBERS
ONLY
Discounts
LoginJoin
 
   1 read write
FS=Full service
Update Fuel Prices
 

Would you like to see your business listed on this page?

 If your business provides an interesting product or service to pilots, flight crews, aircraft, or users of the Dayton-Wright Brothers Airport, you should consider listing it here.  To start the listing process, click on the button below
 
Add a business
 

Other Pages about Dayton-Wright Brothers Airport

Update a link
 
Copyright © AirNav, LLC. All rights reserved. Privacy Policy  Contact